sensor_id;sensor_type;location;lat;lon;timestamp;P1;durP1;ratioP1;P2;durP2;ratioP2
3733;SDS011;1882;52.256;8.874;2022-08-19T00:01:28;19.00;;;11.40;;
3733;SDS011;1882;52.256;8.874;2022-08-19T00:03:57;22.07;;;11.20;;
3733;SDS011;1882;52.256;8.874;2022-08-19T00:06:27;19.23;;;10.63;;
3733;SDS011;1882;52.256;8.874;2022-08-19T00:08:55;15.37;;;11.37;;
3733;SDS011;1882;52.256;8.874;2022-08-19T00:11:22;18.10;;;11.10;;
3733;SDS011;1882;52.256;8.874;2022-08-19T00:13:51;19.90;;;12.60;;
3733;SDS011;1882;52.256;8.874;2022-08-19T00:16:18;17.03;;;11.70;;
3733;SDS011;1882;52.256;8.874;2022-08-19T00:18:52;16.37;;;11.13;;
3733;SDS011;1882;52.256;8.874;2022-08-19T00:21:22;21.47;;;12.33;;
3733;SDS011;1882;52.256;8.874;2022-08-19T00:23:53;15.50;;;11.23;;
3733;SDS011;1882;52.256;8.874;2022-08-19T00:26:20;22.87;;;12.03;;
3733;SDS011;1882;52.256;8.874;2022-08-19T00:28:47;23.20;;;13.50;;
3733;SDS011;1882;52.256;8.874;2022-08-19T00:31:14;19.60;;;12.10;;
3733;SDS011;1882;52.256;8.874;2022-08-19T00:33:43;16.63;;;11.47;;
3733;SDS011;1882;52.256;8.874;2022-08-19T00:36:10;19.00;;;11.13;;
3733;SDS011;1882;52.256;8.874;2022-08-19T00:38:38;18.77;;;12.20;;
3733;SDS011;1882;52.256;8.874;2022-08-19T00:41:10;24.00;;;12.63;;
3733;SDS011;1882;52.256;8.874;2022-08-19T00:43:39;26.17;;;14.00;;
3733;SDS011;1882;52.256;8.874;2022-08-19T00:46:07;26.50;;;12.50;;
3733;SDS011;1882;52.256;8.874;2022-08-19T00:48:34;24.40;;;14.77;;
3733;SDS011;1882;52.256;8.874;2022-08-19T00:51:01;26.90;;;13.40;;
3733;SDS011;1882;52.256;8.874;2022-08-19T00:53:30;21.47;;;13.13;;
3733;SDS011;1882;52.256;8.874;2022-08-19T00:55:59;25.43;;;14.97;;
3733;SDS011;1882;52.256;8.874;2022-08-19T00:58:29;29.00;;;14.63;;
3733;SDS011;1882;52.256;8.874;2022-08-19T01:00:57;26.07;;;15.53;;
3733;SDS011;1882;52.256;8.874;2022-08-19T01:03:24;30.13;;;16.03;;
3733;SDS011;1882;52.256;8.874;2022-08-19T01:05:51;23.97;;;13.50;;
3733;SDS011;1882;52.256;8.874;2022-08-19T01:08:22;20.80;;;12.70;;
3733;SDS011;1882;52.256;8.874;2022-08-19T01:10:52;21.93;;;13.70;;
3733;SDS011;1882;52.256;8.874;2022-08-19T01:13:24;27.97;;;14.70;;
3733;SDS011;1882;52.256;8.874;2022-08-19T01:16:14;25.23;;;14.57;;
3733;SDS011;1882;52.256;8.874;2022-08-19T01:18:41;26.63;;;16.07;;
3733;SDS011;1882;52.256;8.874;2022-08-19T01:21:31;27.27;;;15.67;;
3733;SDS011;1882;52.256;8.874;2022-08-19T01:24:01;23.87;;;15.50;;
3733;SDS011;1882;52.256;8.874;2022-08-19T01:26:28;25.37;;;15.43;;
3733;SDS011;1882;52.256;8.874;2022-08-19T01:28:57;30.93;;;16.60;;
3733;SDS011;1882;52.256;8.874;2022-08-19T01:31:27;31.47;;;16.00;;
3733;SDS011;1882;52.256;8.874;2022-08-19T01:33:59;32.07;;;16.90;;
3733;SDS011;1882;52.256;8.874;2022-08-19T01:36:31;31.30;;;16.47;;
3733;SDS011;1882;52.256;8.874;2022-08-19T01:39:04;30.90;;;17.70;;
3733;SDS011;1882;52.256;8.874;2022-08-19T01:41:33;32.60;;;18.43;;
3733;SDS011;1882;52.256;8.874;2022-08-19T01:44:00;32.53;;;17.10;;
3733;SDS011;1882;52.256;8.874;2022-08-19T01:46:44;35.37;;;17.30;;
3733;SDS011;1882;52.256;8.874;2022-08-19T01:49:13;32.10;;;16.93;;
3733;SDS011;1882;52.256;8.874;2022-08-19T01:51:44;30.77;;;17.70;;
3733;SDS011;1882;52.256;8.874;2022-08-19T01:54:12;32.30;;;16.60;;
3733;SDS011;1882;52.256;8.874;2022-08-19T01:56:53;29.40;;;17.40;;
3733;SDS011;1882;52.256;8.874;2022-08-19T01:59:33;29.80;;;15.67;;
3733;SDS011;1882;52.256;8.874;2022-08-19T02:02:03;26.53;;;15.73;;
3733;SDS011;1882;52.256;8.874;2022-08-19T02:04:34;29.50;;;17.03;;
3733;SDS011;1882;52.256;8.874;2022-08-19T02:07:01;29.00;;;16.87;;
3733;SDS011;1882;52.256;8.874;2022-08-19T02:09:28;32.97;;;16.90;;
3733;SDS011;1882;52.256;8.874;2022-08-19T02:11:54;31.60;;;17.27;;
3733;SDS011;1882;52.256;8.874;2022-08-19T02:14:21;33.80;;;18.00;;
3733;SDS011;1882;52.256;8.874;2022-08-19T02:16:48;32.40;;;17.20;;
3733;SDS011;1882;52.256;8.874;2022-08-19T02:19:15;28.13;;;15.43;;
3733;SDS011;1882;52.256;8.874;2022-08-19T02:21:44;31.23;;;17.10;;
3733;SDS011;1882;52.256;8.874;2022-08-19T02:24:10;31.83;;;16.53;;
3733;SDS011;1882;52.256;8.874;2022-08-19T02:26:38;30.47;;;16.30;;
3733;SDS011;1882;52.256;8.874;2022-08-19T02:29:06;27.90;;;15.47;;
3733;SDS011;1882;52.256;8.874;2022-08-19T02:31:33;29.37;;;18.00;;
3733;SDS011;1882;52.256;8.874;2022-08-19T02:34:03;29.10;;;16.03;;
3733;SDS011;1882;52.256;8.874;2022-08-19T02:36:29;34.53;;;16.63;;
3733;SDS011;1882;52.256;8.874;2022-08-19T02:38:56;33.80;;;16.40;;
3733;SDS011;1882;52.256;8.874;2022-08-19T02:41:24;34.80;;;17.87;;
3733;SDS011;1882;52.256;8.874;2022-08-19T02:43:56;35.50;;;18.43;;
3733;SDS011;1882;52.256;8.874;2022-08-19T02:46:45;32.53;;;17.20;;
3733;SDS011;1882;52.256;8.874;2022-08-19T02:49:13;34.10;;;17.67;;
3733;SDS011;1882;52.256;8.874;2022-08-19T02:51:43;29.70;;;16.03;;
3733;SDS011;1882;52.256;8.874;2022-08-19T02:54:11;28.60;;;15.47;;
3733;SDS011;1882;52.256;8.874;2022-08-19T02:56:41;28.80;;;16.73;;
3733;SDS011;1882;52.256;8.874;2022-08-19T02:59:09;32.17;;;16.73;;
3733;SDS011;1882;52.256;8.874;2022-08-19T03:01:39;31.83;;;17.40;;
3733;SDS011;1882;52.256;8.874;2022-08-19T03:04:11;33.93;;;17.53;;
3733;SDS011;1882;52.256;8.874;2022-08-19T03:06:40;37.80;;;18.80;;
3733;SDS011;1882;52.256;8.874;2022-08-19T03:09:08;36.20;;;17.57;;
3733;SDS011;1882;52.256;8.874;2022-08-19T03:11:42;38.70;;;19.47;;
3733;SDS011;1882;52.256;8.874;2022-08-19T03:14:09;38.37;;;19.00;;
3733;SDS011;1882;52.256;8.874;2022-08-19T03:16:43;36.10;;;19.40;;
3733;SDS011;1882;52.256;8.874;2022-08-19T03:19:13;41.70;;;18.73;;
3733;SDS011;1882;52.256;8.874;2022-08-19T03:21:42;40.43;;;20.40;;
3733;SDS011;1882;52.256;8.874;2022-08-19T03:24:10;32.80;;;17.87;;
3733;SDS011;1882;52.256;8.874;2022-08-19T03:26:41;37.60;;;18.50;;
3733;SDS011;1882;52.256;8.874;2022-08-19T03:29:09;36.00;;;19.03;;
3733;SDS011;1882;52.256;8.874;2022-08-19T03:31:55;30.63;;;17.87;;
3733;SDS011;1882;52.256;8.874;2022-08-19T03:34:23;36.17;;;19.50;;
3733;SDS011;1882;52.256;8.874;2022-08-19T03:36:57;42.33;;;19.73;;
3733;SDS011;1882;52.256;8.874;2022-08-19T03:39:25;45.40;;;20.67;;
3733;SDS011;1882;52.256;8.874;2022-08-19T03:41:53;44.87;;;21.50;;
3733;SDS011;1882;52.256;8.874;2022-08-19T03:44:43;41.40;;;20.73;;
3733;SDS011;1882;52.256;8.874;2022-08-19T03:47:11;46.50;;;20.17;;
3733;SDS011;1882;52.256;8.874;2022-08-19T03:49:42;43.40;;;19.67;;
3733;SDS011;1882;52.256;8.874;2022-08-19T03:52:09;40.97;;;20.47;;
3733;SDS011;1882;52.256;8.874;2022-08-19T03:54:36;42.17;;;20.50;;
3733;SDS011;1882;52.256;8.874;2022-08-19T03:57:04;40.30;;;20.17;;
3733;SDS011;1882;52.256;8.874;2022-08-19T03:59:33;51.87;;;20.60;;
3733;SDS011;1882;52.256;8.874;2022-08-19T04:02:03;40.00;;;20.57;;
3733;SDS011;1882;52.256;8.874;2022-08-19T04:04:35;41.57;;;19.73;;
3733;SDS011;1882;52.256;8.874;2022-08-19T04:07:04;38.03;;;19.23;;
3733;SDS011;1882;52.256;8.874;2022-08-19T04:09:31;37.67;;;19.13;;
3733;SDS011;1882;52.256;8.874;2022-08-19T04:12:00;35.33;;;18.20;;
3733;SDS011;1882;52.256;8.874;2022-08-19T04:14:29;37.53;;;18.87;;
3733;SDS011;1882;52.256;8.874;2022-08-19T04:16:59;34.03;;;17.87;;
3733;SDS011;1882;52.256;8.874;2022-08-19T04:19:28;32.07;;;17.20;;
3733;SDS011;1882;52.256;8.874;2022-08-19T04:22:00;31.63;;;16.27;;
3733;SDS011;1882;52.256;8.874;2022-08-19T04:24:27;27.33;;;15.70;;
3733;SDS011;1882;52.256;8.874;2022-08-19T04:26:54;32.03;;;15.77;;
3733;SDS011;1882;52.256;8.874;2022-08-19T04:29:22;32.37;;;15.87;;
3733;SDS011;1882;52.256;8.874;2022-08-19T04:31:52;32.60;;;15.70;;
3733;SDS011;1882;52.256;8.874;2022-08-19T04:34:22;30.30;;;15.13;;
3733;SDS011;1882;52.256;8.874;2022-08-19T04:36:53;29.10;;;15.07;;
3733;SDS011;1882;52.256;8.874;2022-08-19T04:39:29;27.20;;;14.07;;
3733;SDS011;1882;52.256;8.874;2022-08-19T04:42:16;27.10;;;13.40;;
3733;SDS011;1882;52.256;8.874;2022-08-19T04:45:10;25.37;;;14.03;;
3733;SDS011;1882;52.256;8.874;2022-08-19T04:47:41;23.00;;;13.73;;
3733;SDS011;1882;52.256;8.874;2022-08-19T04:50:23;27.23;;;13.23;;
3733;SDS011;1882;52.256;8.874;2022-08-19T04:52:51;23.43;;;13.93;;
3733;SDS011;1882;52.256;8.874;2022-08-19T04:55:18;23.47;;;13.73;;
3733;SDS011;1882;52.256;8.874;2022-08-19T04:57:45;21.67;;;12.73;;
3733;SDS011;1882;52.256;8.874;2022-08-19T05:00:17;23.27;;;13.33;;
3733;SDS011;1882;52.256;8.874;2022-08-19T05:02:44;22.00;;;11.80;;
3733;SDS011;1882;52.256;8.874;2022-08-19T05:05:11;19.57;;;12.20;;
3733;SDS011;1882;52.256;8.874;2022-08-19T05:07:38;22.13;;;12.60;;
3733;SDS011;1882;52.256;8.874;2022-08-19T05:10:07;20.17;;;12.40;;
3733;SDS011;1882;52.256;8.874;2022-08-19T05:12:37;18.13;;;11.57;;
3733;SDS011;1882;52.256;8.874;2022-08-19T05:15:07;26.87;;;12.10;;
3733;SDS011;1882;52.256;8.874;2022-08-19T05:17:42;17.10;;;11.33;;
3733;SDS011;1882;52.256;8.874;2022-08-19T05:20:29;19.13;;;11.63;;
3733;SDS011;1882;52.256;8.874;2022-08-19T05:23:14;16.60;;;11.47;;
3733;SDS011;1882;52.256;8.874;2022-08-19T05:25:59;18.77;;;11.10;;
3733;SDS011;1882;52.256;8.874;2022-08-19T05:28:29;18.40;;;11.23;;
3733;SDS011;1882;52.256;8.874;2022-08-19T05:31:04;20.87;;;10.67;;
3733;SDS011;1882;52.256;8.874;2022-08-19T05:33:30;16.67;;;10.43;;
3733;SDS011;1882;52.256;8.874;2022-08-19T05:35:57;17.40;;;10.70;;
3733;SDS011;1882;52.256;8.874;2022-08-19T05:38:24;14.13;;;10.17;;
3733;SDS011;1882;52.256;8.874;2022-08-19T05:40:58;16.50;;;10.57;;
3733;SDS011;1882;52.256;8.874;2022-08-19T05:43:25;18.40;;;10.40;;
3733;SDS011;1882;52.256;8.874;2022-08-19T05:45:54;14.63;;;9.20;;
3733;SDS011;1882;52.256;8.874;2022-08-19T05:48:21;17.90;;;10.07;;
3733;SDS011;1882;52.256;8.874;2022-08-19T05:50:56;19.10;;;9.80;;
3733;SDS011;1882;52.256;8.874;2022-08-19T05:53:27;14.87;;;8.93;;
3733;SDS011;1882;52.256;8.874;2022-08-19T05:55:54;14.53;;;9.57;;
3733;SDS011;1882;52.256;8.874;2022-08-19T05:58:24;12.60;;;9.03;;
3733;SDS011;1882;52.256;8.874;2022-08-19T06:00:59;12.00;;;8.90;;
3733;SDS011;1882;52.256;8.874;2022-08-19T06:03:31;17.60;;;10.07;;
3733;SDS011;1882;52.256;8.874;2022-08-19T06:05:59;13.93;;;9.43;;
3733;SDS011;1882;52.256;8.874;2022-08-19T06:08:28;16.10;;;10.17;;
3733;SDS011;1882;52.256;8.874;2022-08-19T06:11:11;16.90;;;10.27;;
3733;SDS011;1882;52.256;8.874;2022-08-19T06:13:39;14.63;;;9.93;;
3733;SDS011;1882;52.256;8.874;2022-08-19T06:16:10;15.03;;;11.10;;
3733;SDS011;1882;52.256;8.874;2022-08-19T06:18:36;14.83;;;10.37;;
3733;SDS011;1882;52.256;8.874;2022-08-19T06:21:03;18.80;;;11.13;;
3733;SDS011;1882;52.256;8.874;2022-08-19T06:23:30;17.70;;;11.87;;
3733;SDS011;1882;52.256;8.874;2022-08-19T06:25:59;18.00;;;11.70;;
3733;SDS011;1882;52.256;8.874;2022-08-19T06:28:26;21.13;;;12.07;;
3733;SDS011;1882;52.256;8.874;2022-08-19T06:30:56;21.00;;;13.37;;
3733;SDS011;1882;52.256;8.874;2022-08-19T06:33:32;18.17;;;12.40;;
3733;SDS011;1882;52.256;8.874;2022-08-19T06:35:59;19.73;;;13.03;;
3733;SDS011;1882;52.256;8.874;2022-08-19T06:38:26;21.37;;;13.90;;
3733;SDS011;1882;52.256;8.874;2022-08-19T06:41:02;20.23;;;13.90;;
3733;SDS011;1882;52.256;8.874;2022-08-19T06:43:33;19.40;;;13.50;;
3733;SDS011;1882;52.256;8.874;2022-08-19T06:46:03;23.77;;;15.80;;
3733;SDS011;1882;52.256;8.874;2022-08-19T06:48:35;23.77;;;15.70;;
3733;SDS011;1882;52.256;8.874;2022-08-19T06:51:11;25.83;;;15.50;;
3733;SDS011;1882;52.256;8.874;2022-08-19T06:53:45;24.50;;;15.90;;
3733;SDS011;1882;52.256;8.874;2022-08-19T06:56:18;23.00;;;14.90;;
3733;SDS011;1882;52.256;8.874;2022-08-19T06:58:50;25.37;;;15.27;;
3733;SDS011;1882;52.256;8.874;2022-08-19T07:01:19;22.50;;;15.67;;
3733;SDS011;1882;52.256;8.874;2022-08-19T07:03:46;22.40;;;15.70;;
3733;SDS011;1882;52.256;8.874;2022-08-19T07:06:14;21.33;;;15.17;;
3733;SDS011;1882;52.256;8.874;2022-08-19T07:09:18;23.87;;;15.10;;
3733;SDS011;1882;52.256;8.874;2022-08-19T07:11:50;20.90;;;14.20;;
3733;SDS011;1882;52.256;8.874;2022-08-19T07:14:20;23.87;;;15.70;;
3733;SDS011;1882;52.256;8.874;2022-08-19T07:16:52;22.80;;;13.63;;
3733;SDS011;1882;52.256;8.874;2022-08-19T07:19:21;19.60;;;14.13;;
3733;SDS011;1882;52.256;8.874;2022-08-19T07:21:50;22.37;;;14.13;;
3733;SDS011;1882;52.256;8.874;2022-08-19T07:24:20;20.90;;;13.80;;
3733;SDS011;1882;52.256;8.874;2022-08-19T07:26:53;21.30;;;13.90;;
3733;SDS011;1882;52.256;8.874;2022-08-19T07:29:21;19.73;;;13.37;;
3733;SDS011;1882;52.256;8.874;2022-08-19T07:31:51;19.20;;;12.90;;
3733;SDS011;1882;52.256;8.874;2022-08-19T07:34:23;18.27;;;12.13;;
3733;SDS011;1882;52.256;8.874;2022-08-19T07:36:53;17.20;;;12.53;;
3733;SDS011;1882;52.256;8.874;2022-08-19T07:39:31;19.43;;;12.97;;
3733;SDS011;1882;52.256;8.874;2022-08-19T07:42:00;18.70;;;11.83;;
3733;SDS011;1882;52.256;8.874;2022-08-19T07:44:29;17.50;;;12.40;;
3733;SDS011;1882;52.256;8.874;2022-08-19T07:46:56;17.27;;;12.20;;
3733;SDS011;1882;52.256;8.874;2022-08-19T07:49:24;20.73;;;11.53;;
3733;SDS011;1882;52.256;8.874;2022-08-19T07:51:55;19.00;;;12.10;;
3733;SDS011;1882;52.256;8.874;2022-08-19T07:54:24;19.10;;;12.80;;
3733;SDS011;1882;52.256;8.874;2022-08-19T07:56:55;22.13;;;12.10;;
3733;SDS011;1882;52.256;8.874;2022-08-19T07:59:23;17.33;;;11.67;;
3733;SDS011;1882;52.256;8.874;2022-08-19T08:01:50;17.93;;;11.57;;
3733;SDS011;1882;52.256;8.874;2022-08-19T08:04:18;16.70;;;9.93;;
3733;SDS011;1882;52.256;8.874;2022-08-19T08:07:04;12.33;;;9.90;;
3733;SDS011;1882;52.256;8.874;2022-08-19T08:09:59;14.60;;;9.60;;
3733;SDS011;1882;52.256;8.874;2022-08-19T08:12:45;16.07;;;8.87;;
3733;SDS011;1882;52.256;8.874;2022-08-19T08:15:31;14.17;;;8.30;;
3733;SDS011;1882;52.256;8.874;2022-08-19T08:17:58;9.77;;;7.10;;
3733;SDS011;1882;52.256;8.874;2022-08-19T08:20:25;8.83;;;7.00;;
3733;SDS011;1882;52.256;8.874;2022-08-19T08:22:55;12.33;;;7.13;;
3733;SDS011;1882;52.256;8.874;2022-08-19T08:26:00;10.03;;;5.77;;
3733;SDS011;1882;52.256;8.874;2022-08-19T08:28:28;7.90;;;6.43;;
3733;SDS011;1882;52.256;8.874;2022-08-19T08:30:56;7.90;;;6.43;;
3733;SDS011;1882;52.256;8.874;2022-08-19T08:33:24;9.33;;;6.60;;
3733;SDS011;1882;52.256;8.874;2022-08-19T08:36:00;9.40;;;6.70;;
3733;SDS011;1882;52.256;8.874;2022-08-19T08:38:30;12.90;;;6.77;;
3733;SDS011;1882;52.256;8.874;2022-08-19T08:43:49;10.40;;;5.87;;
3733;SDS011;1882;52.256;8.874;2022-08-19T08:49:24;9.80;;;6.60;;
3733;SDS011;1882;52.256;8.874;2022-08-19T08:52:04;7.90;;;6.40;;
3733;SDS011;1882;52.256;8.874;2022-08-19T08:54:38;7.73;;;6.93;;
3733;SDS011;1882;52.256;8.874;2022-08-19T09:00:18;8.23;;;6.77;;
3733;SDS011;1882;52.256;8.874;2022-08-19T09:02:47;9.97;;;5.63;;
3733;SDS011;1882;52.256;8.874;2022-08-19T09:05:18;8.13;;;5.87;;
3733;SDS011;1882;52.256;8.874;2022-08-19T09:08:02;8.23;;;7.00;;
3733;SDS011;1882;52.256;8.874;2022-08-19T09:10:52;9.23;;;5.50;;
3733;SDS011;1882;52.256;8.874;2022-08-19T09:16:00;6.50;;;5.23;;
3733;SDS011;1882;52.256;8.874;2022-08-19T09:18:55;5.17;;;4.50;;
3733;SDS011;1882;52.256;8.874;2022-08-19T09:21:25;6.80;;;5.37;;
3733;SDS011;1882;52.256;8.874;2022-08-19T09:24:01;8.30;;;5.73;;
3733;SDS011;1882;52.256;8.874;2022-08-19T09:26:29;5.87;;;4.83;;
3733;SDS011;1882;52.256;8.874;2022-08-19T09:29:18;9.23;;;5.73;;
3733;SDS011;1882;52.256;8.874;2022-08-19T09:31:48;7.47;;;5.50;;
3733;SDS011;1882;52.256;8.874;2022-08-19T09:34:22;5.37;;;4.70;;
3733;SDS011;1882;52.256;8.874;2022-08-19T09:36:49;8.97;;;5.40;;
3733;SDS011;1882;52.256;8.874;2022-08-19T09:39:27;7.03;;;4.90;;
3733;SDS011;1882;52.256;8.874;2022-08-19T09:42:01;7.47;;;5.07;;
3733;SDS011;1882;52.256;8.874;2022-08-19T09:44:41;6.83;;;4.73;;
3733;SDS011;1882;52.256;8.874;2022-08-19T09:47:09;4.73;;;4.20;;
3733;SDS011;1882;52.256;8.874;2022-08-19T09:49:37;5.20;;;4.70;;
3733;SDS011;1882;52.256;8.874;2022-08-19T09:52:11;5.60;;;4.40;;
3733;SDS011;1882;52.256;8.874;2022-08-19T09:54:38;6.80;;;4.20;;
3733;SDS011;1882;52.256;8.874;2022-08-19T09:57:12;4.63;;;3.77;;
3733;SDS011;1882;52.256;8.874;2022-08-19T09:59:38;4.50;;;4.10;;
3733;SDS011;1882;52.256;8.874;2022-08-19T10:02:06;8.00;;;4.90;;
3733;SDS011;1882;52.256;8.874;2022-08-19T10:04:36;3.80;;;3.50;;
3733;SDS011;1882;52.256;8.874;2022-08-19T10:07:28;4.40;;;3.67;;
3733;SDS011;1882;52.256;8.874;2022-08-19T10:10:04;5.57;;;3.87;;
3733;SDS011;1882;52.256;8.874;2022-08-19T10:12:38;3.40;;;3.10;;
3733;SDS011;1882;52.256;8.874;2022-08-19T10:15:08;5.40;;;4.50;;
3733;SDS011;1882;52.256;8.874;2022-08-19T10:17:35;4.00;;;3.60;;
3733;SDS011;1882;52.256;8.874;2022-08-19T10:20:22;3.70;;;3.37;;
3733;SDS011;1882;52.256;8.874;2022-08-19T10:22:51;4.00;;;3.57;;
3733;SDS011;1882;52.256;8.874;2022-08-19T10:25:18;4.43;;;3.40;;
3733;SDS011;1882;52.256;8.874;2022-08-19T10:27:45;5.10;;;3.43;;
3733;SDS011;1882;52.256;8.874;2022-08-19T10:30:21;4.27;;;3.30;;
3733;SDS011;1882;52.256;8.874;2022-08-19T10:32:50;6.63;;;3.50;;
3733;SDS011;1882;52.256;8.874;2022-08-19T10:35:18;4.83;;;3.43;;
3733;SDS011;1882;52.256;8.874;2022-08-19T10:37:57;3.83;;;3.37;;
3733;SDS011;1882;52.256;8.874;2022-08-19T10:40:27;3.67;;;3.33;;
3733;SDS011;1882;52.256;8.874;2022-08-19T10:42:55;4.23;;;3.40;;
3733;SDS011;1882;52.256;8.874;2022-08-19T10:45:25;4.53;;;3.67;;
3733;SDS011;1882;52.256;8.874;2022-08-19T10:47:53;5.10;;;3.70;;
3733;SDS011;1882;52.256;8.874;2022-08-19T10:50:21;3.63;;;3.30;;
3733;SDS011;1882;52.256;8.874;2022-08-19T10:53:07;4.27;;;3.40;;
3733;SDS011;1882;52.256;8.874;2022-08-19T10:55:38;6.90;;;3.00;;
3733;SDS011;1882;52.256;8.874;2022-08-19T10:58:24;4.07;;;3.70;;
3733;SDS011;1882;52.256;8.874;2022-08-19T11:00:59;5.70;;;3.40;;
3733;SDS011;1882;52.256;8.874;2022-08-19T11:03:29;3.50;;;3.20;;
3733;SDS011;1882;52.256;8.874;2022-08-19T11:06:01;3.30;;;3.00;;
3733;SDS011;1882;52.256;8.874;2022-08-19T11:08:29;4.30;;;3.27;;
3733;SDS011;1882;52.256;8.874;2022-08-19T11:10:58;4.23;;;3.30;;
3733;SDS011;1882;52.256;8.874;2022-08-19T11:13:27;4.03;;;3.67;;
3733;SDS011;1882;52.256;8.874;2022-08-19T11:16:00;3.40;;;3.07;;
3733;SDS011;1882;52.256;8.874;2022-08-19T11:18:34;4.93;;;3.30;;
3733;SDS011;1882;52.256;8.874;2022-08-19T11:21:09;3.17;;;2.90;;
3733;SDS011;1882;52.256;8.874;2022-08-19T11:23:47;5.73;;;3.50;;
3733;SDS011;1882;52.256;8.874;2022-08-19T11:26:15;3.30;;;3.00;;
3733;SDS011;1882;52.256;8.874;2022-08-19T11:28:45;3.60;;;3.30;;
3733;SDS011;1882;52.256;8.874;2022-08-19T11:31:13;3.47;;;3.17;;
3733;SDS011;1882;52.256;8.874;2022-08-19T11:33:45;3.50;;;3.13;;
3733;SDS011;1882;52.256;8.874;2022-08-19T11:36:16;3.87;;;3.13;;
3733;SDS011;1882;52.256;8.874;2022-08-19T11:38:44;3.60;;;3.30;;
3733;SDS011;1882;52.256;8.874;2022-08-19T11:41:11;3.60;;;3.30;;
3733;SDS011;1882;52.256;8.874;2022-08-19T11:43:38;3.23;;;2.93;;
3733;SDS011;1882;52.256;8.874;2022-08-19T11:46:06;5.67;;;2.93;;
3733;SDS011;1882;52.256;8.874;2022-08-19T11:48:35;3.50;;;3.20;;
3733;SDS011;1882;52.256;8.874;2022-08-19T11:51:04;4.00;;;3.00;;
3733;SDS011;1882;52.256;8.874;2022-08-19T11:53:38;4.50;;;3.23;;
3733;SDS011;1882;52.256;8.874;2022-08-19T11:56:06;3.10;;;2.90;;
3733;SDS011;1882;52.256;8.874;2022-08-19T11:58:34;3.60;;;3.30;;
3733;SDS011;1882;52.256;8.874;2022-08-19T12:01:04;3.30;;;3.00;;
3733;SDS011;1882;52.256;8.874;2022-08-19T12:03:32;3.50;;;3.20;;
3733;SDS011;1882;52.256;8.874;2022-08-19T12:06:06;4.80;;;3.37;;
3733;SDS011;1882;52.256;8.874;2022-08-19T12:08:42;3.40;;;3.10;;
3733;SDS011;1882;52.256;8.874;2022-08-19T12:11:12;3.97;;;3.57;;
3733;SDS011;1882;52.256;8.874;2022-08-19T12:13:40;3.43;;;2.70;;
3733;SDS011;1882;52.256;8.874;2022-08-19T12:16:12;3.33;;;2.87;;
3733;SDS011;1882;52.256;8.874;2022-08-19T12:18:42;4.40;;;3.17;;
3733;SDS011;1882;52.256;8.874;2022-08-19T12:21:13;4.20;;;3.00;;
3733;SDS011;1882;52.256;8.874;2022-08-19T12:23:41;3.03;;;2.83;;
3733;SDS011;1882;52.256;8.874;2022-08-19T12:26:09;6.70;;;3.20;;
3733;SDS011;1882;52.256;8.874;2022-08-19T12:28:36;3.40;;;3.10;;
3733;SDS011;1882;52.256;8.874;2022-08-19T12:31:04;3.40;;;3.10;;
3733;SDS011;1882;52.256;8.874;2022-08-19T12:33:31;3.70;;;3.17;;
3733;SDS011;1882;52.256;8.874;2022-08-19T12:36:03;3.00;;;2.80;;
3733;SDS011;1882;52.256;8.874;2022-08-19T12:38:32;4.83;;;3.00;;
3733;SDS011;1882;52.256;8.874;2022-08-19T12:41:00;3.17;;;2.70;;
3733;SDS011;1882;52.256;8.874;2022-08-19T12:43:29;3.23;;;2.90;;
3733;SDS011;1882;52.256;8.874;2022-08-19T12:45:56;3.07;;;2.77;;
3733;SDS011;1882;52.256;8.874;2022-08-19T12:48:25;2.90;;;2.70;;
3733;SDS011;1882;52.256;8.874;2022-08-19T12:51:07;3.67;;;3.03;;
3733;SDS011;1882;52.256;8.874;2022-08-19T12:53:41;3.73;;;2.80;;
3733;SDS011;1882;52.256;8.874;2022-08-19T12:56:09;3.07;;;2.87;;
3733;SDS011;1882;52.256;8.874;2022-08-19T12:58:41;3.10;;;2.90;;
3733;SDS011;1882;52.256;8.874;2022-08-19T13:01:16;3.60;;;3.30;;
3733;SDS011;1882;52.256;8.874;2022-08-19T13:03:47;3.30;;;3.00;;
3733;SDS011;1882;52.256;8.874;2022-08-19T13:06:16;3.73;;;3.00;;
3733;SDS011;1882;52.256;8.874;2022-08-19T13:08:45;3.10;;;2.90;;
3733;SDS011;1882;52.256;8.874;2022-08-19T13:11:17;3.23;;;3.00;;
3733;SDS011;1882;52.256;8.874;2022-08-19T13:13:46;4.10;;;3.10;;
3733;SDS011;1882;52.256;8.874;2022-08-19T13:16:14;3.53;;;3.23;;
3733;SDS011;1882;52.256;8.874;2022-08-19T13:18:44;3.93;;;3.33;;
3733;SDS011;1882;52.256;8.874;2022-08-19T13:21:18;4.63;;;3.43;;
3733;SDS011;1882;52.256;8.874;2022-08-19T13:23:48;4.00;;;3.60;;
3733;SDS011;1882;52.256;8.874;2022-08-19T13:26:19;5.53;;;3.40;;
3733;SDS011;1882;52.256;8.874;2022-08-19T13:28:46;3.70;;;3.40;;
3733;SDS011;1882;52.256;8.874;2022-08-19T13:31:35;3.90;;;3.60;;
3733;SDS011;1882;52.256;8.874;2022-08-19T13:34:31;3.40;;;3.10;;
3733;SDS011;1882;52.256;8.874;2022-08-19T13:37:00;5.13;;;3.50;;
3733;SDS011;1882;52.256;8.874;2022-08-19T13:39:34;15.33;;;4.00;;
3733;SDS011;1882;52.256;8.874;2022-08-19T13:42:04;3.57;;;3.23;;
3733;SDS011;1882;52.256;8.874;2022-08-19T13:44:35;5.10;;;3.30;;
3733;SDS011;1882;52.256;8.874;2022-08-19T13:47:03;4.13;;;3.53;;
3733;SDS011;1882;52.256;8.874;2022-08-19T13:49:34;3.37;;;3.17;;
3733;SDS011;1882;52.256;8.874;2022-08-19T13:52:03;5.30;;;3.00;;
3733;SDS011;1882;52.256;8.874;2022-08-19T13:54:30;3.70;;;3.40;;
3733;SDS011;1882;52.256;8.874;2022-08-19T13:56:57;3.90;;;3.10;;
3733;SDS011;1882;52.256;8.874;2022-08-19T13:59:27;3.63;;;3.10;;
3733;SDS011;1882;52.256;8.874;2022-08-19T14:01:57;3.50;;;3.20;;
3733;SDS011;1882;52.256;8.874;2022-08-19T14:04:24;3.50;;;3.10;;
3733;SDS011;1882;52.256;8.874;2022-08-19T14:06:51;4.77;;;3.30;;
3733;SDS011;1882;52.256;8.874;2022-08-19T14:09:20;3.30;;;2.90;;
3733;SDS011;1882;52.256;8.874;2022-08-19T14:11:47;3.57;;;3.27;;
3733;SDS011;1882;52.256;8.874;2022-08-19T14:14:17;3.50;;;3.30;;
3733;SDS011;1882;52.256;8.874;2022-08-19T14:16:53;3.30;;;3.00;;
3733;SDS011;1882;52.256;8.874;2022-08-19T14:19:20;5.00;;;3.30;;
3733;SDS011;1882;52.256;8.874;2022-08-19T14:22:02;4.50;;;3.30;;
3733;SDS011;1882;52.256;8.874;2022-08-19T14:24:29;5.27;;;3.37;;
3733;SDS011;1882;52.256;8.874;2022-08-19T14:26:59;4.10;;;3.73;;
3733;SDS011;1882;52.256;8.874;2022-08-19T14:29:34;4.00;;;3.23;;
3733;SDS011;1882;52.256;8.874;2022-08-19T14:32:01;4.33;;;3.30;;
3733;SDS011;1882;52.256;8.874;2022-08-19T14:34:28;4.87;;;3.80;;
3733;SDS011;1882;52.256;8.874;2022-08-19T14:36:55;3.50;;;3.20;;
3733;SDS011;1882;52.256;8.874;2022-08-19T14:39:24;3.90;;;3.30;;
3733;SDS011;1882;52.256;8.874;2022-08-19T14:41:51;3.77;;;3.47;;
3733;SDS011;1882;52.256;8.874;2022-08-19T14:44:18;5.47;;;3.80;;
3733;SDS011;1882;52.256;8.874;2022-08-19T14:46:48;4.00;;;3.70;;
3733;SDS011;1882;52.256;8.874;2022-08-19T14:49:22;4.00;;;3.70;;
3733;SDS011;1882;52.256;8.874;2022-08-19T14:52:03;4.93;;;3.70;;
3733;SDS011;1882;52.256;8.874;2022-08-19T14:54:30;7.53;;;3.97;;
3733;SDS011;1882;52.256;8.874;2022-08-19T14:56:57;5.90;;;4.27;;
3733;SDS011;1882;52.256;8.874;2022-08-19T14:59:23;7.77;;;3.90;;
3733;SDS011;1882;52.256;8.874;2022-08-19T15:01:50;6.33;;;3.43;;
3733;SDS011;1882;52.256;8.874;2022-08-19T15:04:46;4.30;;;3.90;;
3733;SDS011;1882;52.256;8.874;2022-08-19T15:07:25;4.07;;;3.77;;
3733;SDS011;1882;52.256;8.874;2022-08-19T15:09:54;4.53;;;4.00;;
3733;SDS011;1882;52.256;8.874;2022-08-19T15:12:21;4.00;;;3.60;;
3733;SDS011;1882;52.256;8.874;2022-08-19T15:14:53;3.90;;;3.60;;
3733;SDS011;1882;52.256;8.874;2022-08-19T15:17:23;3.90;;;3.60;;
3733;SDS011;1882;52.256;8.874;2022-08-19T15:20:11;4.93;;;3.70;;
3733;SDS011;1882;52.256;8.874;2022-08-19T15:22:40;4.23;;;3.83;;
3733;SDS011;1882;52.256;8.874;2022-08-19T15:25:15;6.60;;;3.77;;
3733;SDS011;1882;52.256;8.874;2022-08-19T15:27:42;4.70;;;3.40;;
3733;SDS011;1882;52.256;8.874;2022-08-19T15:30:10;5.30;;;3.97;;
3733;SDS011;1882;52.256;8.874;2022-08-19T15:32:45;4.13;;;3.60;;
3733;SDS011;1882;52.256;8.874;2022-08-19T15:35:14;5.90;;;3.43;;
3733;SDS011;1882;52.256;8.874;2022-08-19T15:37:41;5.33;;;3.63;;